sensor_id;sensor_type;location;lat;lon;timestamp;temperature;humidity
52381;DHT22;38310;52.796;6.942;2023-09-18T00:01:56;16.70;99.90
52381;DHT22;38310;52.796;6.942;2023-09-18T00:04:22;16.70;99.90
52381;DHT22;38310;52.796;6.942;2023-09-18T00:06:48;16.60;99.90
52381;DHT22;38310;52.796;6.942;2023-09-18T00:09:14;16.60;99.90
52381;DHT22;38310;52.796;6.942;2023-09-18T00:11:40;16.60;99.90
52381;DHT22;38310;52.796;6.942;2023-09-18T00:14:07;16.60;99.90
52381;DHT22;38310;52.796;6.942;2023-09-18T00:16:33;16.60;99.90
52381;DHT22;38310;52.796;6.942;2023-09-18T00:18:59;16.60;99.90
52381;DHT22;38310;52.796;6.942;2023-09-18T00:21:25;16.60;99.90
52381;DHT22;38310;52.796;6.942;2023-09-18T00:23:51;16.50;99.90
52381;DHT22;38310;52.796;6.942;2023-09-18T00:26:17;16.50;99.90
52381;DHT22;38310;52.796;6.942;2023-09-18T00:28:43;16.40;99.90
52381;DHT22;38310;52.796;6.942;2023-09-18T00:31:09;16.40;99.90
52381;DHT22;38310;52.796;6.942;2023-09-18T00:33:35;16.40;99.90
52381;DHT22;38310;52.796;6.942;2023-09-18T00:36:01;16.40;99.90
52381;DHT22;38310;52.796;6.942;2023-09-18T00:38:26;16.40;99.90
52381;DHT22;38310;52.796;6.942;2023-09-18T00:40:52;16.40;99.90
52381;DHT22;38310;52.796;6.942;2023-09-18T00:43:18;16.30;99.90
52381;DHT22;38310;52.796;6.942;2023-09-18T00:45:48;16.30;99.90
52381;DHT22;38310;52.796;6.942;2023-09-18T00:48:17;16.30;99.90
52381;DHT22;38310;52.796;6.942;2023-09-18T00:50:44;16.30;99.90
52381;DHT22;38310;52.796;6.942;2023-09-18T00:53:14;16.30;99.90
52381;DHT22;38310;52.796;6.942;2023-09-18T00:55:41;16.30;99.90
52381;DHT22;38310;52.796;6.942;2023-09-18T00:58:08;16.20;99.90
52381;DHT22;38310;52.796;6.942;2023-09-18T01:00:34;16.20;99.90
52381;DHT22;38310;52.796;6.942;2023-09-18T01:03:01;16.20;99.90
52381;DHT22;38310;52.796;6.942;2023-09-18T01:05:32;16.20;99.90
52381;DHT22;38310;52.796;6.942;2023-09-18T01:07:58;16.20;99.90
52381;DHT22;38310;52.796;6.942;2023-09-18T01:10:34;16.20;99.90
52381;DHT22;38310;52.796;6.942;2023-09-18T01:13:12;16.20;99.90
52381;DHT22;38310;52.796;6.942;2023-09-18T01:15:50;16.20;99.90
52381;DHT22;38310;52.796;6.942;2023-09-18T01:18:17;16.10;99.90
52381;DHT22;38310;52.796;6.942;2023-09-18T01:20:44;16.20;99.90
52381;DHT22;38310;52.796;6.942;2023-09-18T01:23:10;16.20;99.90
52381;DHT22;38310;52.796;6.942;2023-09-18T01:25:37;16.30;99.90
52381;DHT22;38310;52.796;6.942;2023-09-18T01:28:03;16.30;99.90
52381;DHT22;38310;52.796;6.942;2023-09-18T01:30:29;16.30;99.90
52381;DHT22;38310;52.796;6.942;2023-09-18T01:32:57;16.30;99.90
52381;DHT22;38310;52.796;6.942;2023-09-18T01:35:25;16.30;99.90
52381;DHT22;38310;52.796;6.942;2023-09-18T01:37:59;16.30;99.90
52381;DHT22;38310;52.796;6.942;2023-09-18T01:40:28;16.30;99.90
52381;DHT22;38310;52.796;6.942;2023-09-18T01:42:55;16.30;99.90
52381;DHT22;38310;52.796;6.942;2023-09-18T01:45:21;16.40;99.90
52381;DHT22;38310;52.796;6.942;2023-09-18T01:47:47;16.50;99.90
52381;DHT22;38310;52.796;6.942;2023-09-18T01:50:12;16.50;99.90
52381;DHT22;38310;52.796;6.942;2023-09-18T01:52:39;16.60;99.90
52381;DHT22;38310;52.796;6.942;2023-09-18T01:55:05;16.60;99.90
52381;DHT22;38310;52.796;6.942;2023-09-18T01:57:31;16.60;99.90
52381;DHT22;38310;52.796;6.942;2023-09-18T01:59:57;16.60;99.90
52381;DHT22;38310;52.796;6.942;2023-09-18T02:02:22;16.60;99.90
52381;DHT22;38310;52.796;6.942;2023-09-18T02:04:49;16.60;99.90
52381;DHT22;38310;52.796;6.942;2023-09-18T02:07:15;16.60;99.90
52381;DHT22;38310;52.796;6.942;2023-09-18T02:09:40;16.60;99.90
52381;DHT22;38310;52.796;6.942;2023-09-18T02:12:06;16.60;99.90
52381;DHT22;38310;52.796;6.942;2023-09-18T02:14:32;16.60;99.90
52381;DHT22;38310;52.796;6.942;2023-09-18T02:16:59;16.70;99.90
52381;DHT22;38310;52.796;6.942;2023-09-18T02:19:26;16.70;99.90
52381;DHT22;38310;52.796;6.942;2023-09-18T02:21:52;16.80;99.90
52381;DHT22;38310;52.796;6.942;2023-09-18T02:24:18;16.70;99.90
52381;DHT22;38310;52.796;6.942;2023-09-18T02:26:44;16.80;99.90
52381;DHT22;38310;52.796;6.942;2023-09-18T02:29:11;16.80;99.90
52381;DHT22;38310;52.796;6.942;2023-09-18T02:31:39;16.80;99.90
52381;DHT22;38310;52.796;6.942;2023-09-18T02:34:04;16.80;99.90
52381;DHT22;38310;52.796;6.942;2023-09-18T02:36:30;16.80;99.90
52381;DHT22;38310;52.796;6.942;2023-09-18T02:38:56;16.80;99.90
52381;DHT22;38310;52.796;6.942;2023-09-18T02:41:22;16.80;99.90
52381;DHT22;38310;52.796;6.942;2023-09-18T02:43:47;16.80;99.90
52381;DHT22;38310;52.796;6.942;2023-09-18T02:46:13;16.90;99.90
52381;DHT22;38310;52.796;6.942;2023-09-18T02:48:39;16.90;99.90
52381;DHT22;38310;52.796;6.942;2023-09-18T02:51:05;16.90;99.90
52381;DHT22;38310;52.796;6.942;2023-09-18T02:53:31;17.00;99.90
52381;DHT22;38310;52.796;6.942;2023-09-18T02:55:58;16.90;99.90
52381;DHT22;38310;52.796;6.942;2023-09-18T02:58:24;16.90;99.90
52381;DHT22;38310;52.796;6.942;2023-09-18T03:00:52;16.90;99.90
52381;DHT22;38310;52.796;6.942;2023-09-18T03:03:22;16.90;99.90
52381;DHT22;38310;52.796;6.942;2023-09-18T03:05:48;17.00;99.90
52381;DHT22;38310;52.796;6.942;2023-09-18T03:08:14;16.90;99.90
52381;DHT22;38310;52.796;6.942;2023-09-18T03:10:42;17.00;99.90
52381;DHT22;38310;52.796;6.942;2023-09-18T03:13:10;17.10;99.90
52381;DHT22;38310;52.796;6.942;2023-09-18T03:15:36;17.10;99.90
52381;DHT22;38310;52.796;6.942;2023-09-18T03:18:03;16.90;99.90
52381;DHT22;38310;52.796;6.942;2023-09-18T03:20:30;17.10;99.90
52381;DHT22;38310;52.796;6.942;2023-09-18T03:22:58;17.10;99.90
52381;DHT22;38310;52.796;6.942;2023-09-18T03:25:24;17.10;99.90
52381;DHT22;38310;52.796;6.942;2023-09-18T03:27:56;17.50;99.90
52381;DHT22;38310;52.796;6.942;2023-09-18T03:30:22;17.20;99.90
52381;DHT22;38310;52.796;6.942;2023-09-18T03:32:49;17.10;99.90
52381;DHT22;38310;52.796;6.942;2023-09-18T03:35:15;17.10;99.90
52381;DHT22;38310;52.796;6.942;2023-09-18T03:37:50;17.20;99.90
52381;DHT22;38310;52.796;6.942;2023-09-18T03:40:17;17.20;99.90
52381;DHT22;38310;52.796;6.942;2023-09-18T03:42:43;17.20;99.90
52381;DHT22;38310;52.796;6.942;2023-09-18T03:45:09;17.20;99.90
52381;DHT22;38310;52.796;6.942;2023-09-18T03:47:36;17.60;99.90
52381;DHT22;38310;52.796;6.942;2023-09-18T03:50:03;17.20;99.90
52381;DHT22;38310;52.796;6.942;2023-09-18T03:52:29;17.30;99.90
52381;DHT22;38310;52.796;6.942;2023-09-18T03:54:54;17.30;99.90
52381;DHT22;38310;52.796;6.942;2023-09-18T03:57:20;17.30;99.90
52381;DHT22;38310;52.796;6.942;2023-09-18T03:59:46;17.40;99.90
52381;DHT22;38310;52.796;6.942;2023-09-18T04:02:12;17.40;99.90
52381;DHT22;38310;52.796;6.942;2023-09-18T04:04:37;17.40;99.90
52381;DHT22;38310;52.796;6.942;2023-09-18T04:07:07;17.40;99.90
52381;DHT22;38310;52.796;6.942;2023-09-18T04:09:33;17.40;99.90
52381;DHT22;38310;52.796;6.942;2023-09-18T04:12:02;17.40;99.90
52381;DHT22;38310;52.796;6.942;2023-09-18T04:14:28;17.40;99.90
52381;DHT22;38310;52.796;6.942;2023-09-18T04:16:54;17.50;99.90
52381;DHT22;38310;52.796;6.942;2023-09-18T04:19:19;17.50;99.90
52381;DHT22;38310;52.796;6.942;2023-09-18T04:21:45;17.50;99.90
52381;DHT22;38310;52.796;6.942;2023-09-18T04:24:11;17.60;99.90
52381;DHT22;38310;52.796;6.942;2023-09-18T04:26:37;17.50;99.90
52381;DHT22;38310;52.796;6.942;2023-09-18T04:29:03;17.50;99.90
52381;DHT22;38310;52.796;6.942;2023-09-18T04:31:29;17.60;99.90
52381;DHT22;38310;52.796;6.942;2023-09-18T04:33:55;17.50;99.90
52381;DHT22;38310;52.796;6.942;2023-09-18T04:36:21;17.60;99.90
52381;DHT22;38310;52.796;6.942;2023-09-18T04:38:46;17.50;99.90
52381;DHT22;38310;52.796;6.942;2023-09-18T04:41:14;17.60;99.90
52381;DHT22;38310;52.796;6.942;2023-09-18T04:43:40;17.60;99.90
52381;DHT22;38310;52.796;6.942;2023-09-18T04:46:08;17.60;99.90
52381;DHT22;38310;52.796;6.942;2023-09-18T04:48:34;17.60;99.90
52381;DHT22;38310;52.796;6.942;2023-09-18T04:51:00;17.60;99.90
52381;DHT22;38310;52.796;6.942;2023-09-18T04:53:30;17.60;99.90
52381;DHT22;38310;52.796;6.942;2023-09-18T04:55:56;17.60;99.90
52381;DHT22;38310;52.796;6.942;2023-09-18T04:58:22;17.60;99.90
52381;DHT22;38310;52.796;6.942;2023-09-18T05:00:54;17.70;99.90
52381;DHT22;38310;52.796;6.942;2023-09-18T05:03:20;17.70;99.90
52381;DHT22;38310;52.796;6.942;2023-09-18T05:05:47;17.70;99.90
52381;DHT22;38310;52.796;6.942;2023-09-18T05:08:12;17.70;99.90
52381;DHT22;38310;52.796;6.942;2023-09-18T05:10:38;17.80;99.90
52381;DHT22;38310;52.796;6.942;2023-09-18T05:13:04;17.80;99.90
52381;DHT22;38310;52.796;6.942;2023-09-18T05:15:30;17.80;99.90
52381;DHT22;38310;52.796;6.942;2023-09-18T05:17:57;17.80;99.90
52381;DHT22;38310;52.796;6.942;2023-09-18T05:20:24;17.80;99.90
52381;DHT22;38310;52.796;6.942;2023-09-18T05:22:51;17.80;99.90
52381;DHT22;38310;52.796;6.942;2023-09-18T05:25:21;17.80;99.90
52381;DHT22;38310;52.796;6.942;2023-09-18T05:27:48;17.90;99.90
52381;DHT22;38310;52.796;6.942;2023-09-18T05:30:18;17.90;99.90
52381;DHT22;38310;52.796;6.942;2023-09-18T05:32:46;17.90;99.90
52381;DHT22;38310;52.796;6.942;2023-09-18T05:35:13;17.90;99.90
52381;DHT22;38310;52.796;6.942;2023-09-18T05:37:40;17.90;99.90
52381;DHT22;38310;52.796;6.942;2023-09-18T05:40:07;17.90;99.90
52381;DHT22;38310;52.796;6.942;2023-09-18T05:42:42;18.00;99.90
52381;DHT22;38310;52.796;6.942;2023-09-18T05:45:10;18.00;99.90
52381;DHT22;38310;52.796;6.942;2023-09-18T05:47:36;18.00;99.90
52381;DHT22;38310;52.796;6.942;2023-09-18T05:50:04;18.00;99.90
52381;DHT22;38310;52.796;6.942;2023-09-18T05:52:30;18.00;99.90
52381;DHT22;38310;52.796;6.942;2023-09-18T05:54:55;18.00;99.90
52381;DHT22;38310;52.796;6.942;2023-09-18T05:57:21;18.00;99.90
52381;DHT22;38310;52.796;6.942;2023-09-18T05:59:46;18.10;99.90
52381;DHT22;38310;52.796;6.942;2023-09-18T06:02:13;18.10;99.90
52381;DHT22;38310;52.796;6.942;2023-09-18T06:04:39;18.20;99.90
52381;DHT22;38310;52.796;6.942;2023-09-18T06:07:05;18.30;99.90
52381;DHT22;38310;52.796;6.942;2023-09-18T06:09:30;18.30;99.90
52381;DHT22;38310;52.796;6.942;2023-09-18T06:11:56;18.40;99.90
52381;DHT22;38310;52.796;6.942;2023-09-18T06:14:22;18.50;99.90
52381;DHT22;38310;52.796;6.942;2023-09-18T06:16:48;18.50;99.90
52381;DHT22;38310;52.796;6.942;2023-09-18T06:19:16;18.60;99.90
52381;DHT22;38310;52.796;6.942;2023-09-18T06:21:44;18.60;99.90
52381;DHT22;38310;52.796;6.942;2023-09-18T06:24:09;18.70;99.90
52381;DHT22;38310;52.796;6.942;2023-09-18T06:26:35;18.70;99.90
52381;DHT22;38310;52.796;6.942;2023-09-18T06:29:01;18.70;99.90
52381;DHT22;38310;52.796;6.942;2023-09-18T06:31:28;18.70;99.90
52381;DHT22;38310;52.796;6.942;2023-09-18T06:33:54;18.70;99.90
52381;DHT22;38310;52.796;6.942;2023-09-18T06:36:20;18.70;99.90
52381;DHT22;38310;52.796;6.942;2023-09-18T06:38:46;18.70;99.90
52381;DHT22;38310;52.796;6.942;2023-09-18T06:41:12;18.70;99.90
52381;DHT22;38310;52.796;6.942;2023-09-18T06:43:38;18.60;99.90
52381;DHT22;38310;52.796;6.942;2023-09-18T06:46:03;18.70;99.90
52381;DHT22;38310;52.796;6.942;2023-09-18T06:48:29;18.60;99.90
52381;DHT22;38310;52.796;6.942;2023-09-18T06:50:58;18.60;99.90
52381;DHT22;38310;52.796;6.942;2023-09-18T06:53:26;18.70;99.90
52381;DHT22;38310;52.796;6.942;2023-09-18T06:55:53;18.60;99.90
52381;DHT22;38310;52.796;6.942;2023-09-18T06:58:19;18.60;99.90
52381;DHT22;38310;52.796;6.942;2023-09-18T07:00:45;18.60;99.90
52381;DHT22;38310;52.796;6.942;2023-09-18T07:03:11;18.70;99.90
52381;DHT22;38310;52.796;6.942;2023-09-18T07:05:37;18.70;99.90
52381;DHT22;38310;52.796;6.942;2023-09-18T07:08:03;18.70;99.90
52381;DHT22;38310;52.796;6.942;2023-09-18T07:10:31;18.80;99.90
52381;DHT22;38310;52.796;6.942;2023-09-18T07:12:58;18.80;99.90
52381;DHT22;38310;52.796;6.942;2023-09-18T07:15:24;18.80;99.90
52381;DHT22;38310;52.796;6.942;2023-09-18T07:17:50;18.90;99.90
52381;DHT22;38310;52.796;6.942;2023-09-18T07:20:15;18.90;99.90
52381;DHT22;38310;52.796;6.942;2023-09-18T07:22:45;18.90;99.90
52381;DHT22;38310;52.796;6.942;2023-09-18T07:25:11;18.90;99.90
52381;DHT22;38310;52.796;6.942;2023-09-18T07:27:37;18.90;99.90
52381;DHT22;38310;52.796;6.942;2023-09-18T07:30:05;18.90;99.90
52381;DHT22;38310;52.796;6.942;2023-09-18T07:32:31;19.00;99.90
52381;DHT22;38310;52.796;6.942;2023-09-18T07:34:58;19.00;99.90
52381;DHT22;38310;52.796;6.942;2023-09-18T07:37:23;19.00;99.90
52381;DHT22;38310;52.796;6.942;2023-09-18T07:39:49;19.10;99.90
52381;DHT22;38310;52.796;6.942;2023-09-18T07:42:15;19.10;99.90
52381;DHT22;38310;52.796;6.942;2023-09-18T07:44:40;19.10;99.90
52381;DHT22;38310;52.796;6.942;2023-09-18T07:47:06;19.10;99.90
52381;DHT22;38310;52.796;6.942;2023-09-18T07:49:33;19.20;99.90
52381;DHT22;38310;52.796;6.942;2023-09-18T07:51:59;19.20;99.90
52381;DHT22;38310;52.796;6.942;2023-09-18T07:54:24;19.30;99.90
52381;DHT22;38310;52.796;6.942;2023-09-18T07:56:50;19.30;99.90
52381;DHT22;38310;52.796;6.942;2023-09-18T07:59:16;19.40;99.90
52381;DHT22;38310;52.796;6.942;2023-09-18T08:01:42;19.40;99.90
52381;DHT22;38310;52.796;6.942;2023-09-18T08:04:07;20.10;99.90
52381;DHT22;38310;52.796;6.942;2023-09-18T08:06:33;19.50;99.90
52381;DHT22;38310;52.796;6.942;2023-09-18T08:09:00;19.50;99.90
52381;DHT22;38310;52.796;6.942;2023-09-18T08:11:26;19.50;99.90
52381;DHT22;38310;52.796;6.942;2023-09-18T08:13:51;19.50;99.90
52381;DHT22;38310;52.796;6.942;2023-09-18T08:16:17;19.60;99.90
52381;DHT22;38310;52.796;6.942;2023-09-18T08:18:43;19.60;99.90
52381;DHT22;38310;52.796;6.942;2023-09-18T08:21:09;19.60;99.90
52381;DHT22;38310;52.796;6.942;2023-09-18T08:23:35;19.60;99.90
52381;DHT22;38310;52.796;6.942;2023-09-18T08:26:02;19.60;99.90
52381;DHT22;38310;52.796;6.942;2023-09-18T08:28:29;19.60;99.90
52381;DHT22;38310;52.796;6.942;2023-09-18T08:30:55;19.60;99.90
52381;DHT22;38310;52.796;6.942;2023-09-18T08:33:21;19.60;99.90
52381;DHT22;38310;52.796;6.942;2023-09-18T08:35:47;19.60;99.90
52381;DHT22;38310;52.796;6.942;2023-09-18T08:38:15;19.60;99.90
52381;DHT22;38310;52.796;6.942;2023-09-18T08:40:41;19.60;99.90
52381;DHT22;38310;52.796;6.942;2023-09-18T08:43:11;19.70;99.90
52381;DHT22;38310;52.796;6.942;2023-09-18T08:45:55;19.70;99.90
52381;DHT22;38310;52.796;6.942;2023-09-18T08:48:21;19.70;99.90
52381;DHT22;38310;52.796;6.942;2023-09-18T08:50:48;19.80;99.90
52381;DHT22;38310;52.796;6.942;2023-09-18T08:53:14;19.80;99.90
52381;DHT22;38310;52.796;6.942;2023-09-18T08:55:40;19.80;99.90
52381;DHT22;38310;52.796;6.942;2023-09-18T08:58:07;19.90;99.90
52381;DHT22;38310;52.796;6.942;2023-09-18T09:00:33;19.90;99.90
52381;DHT22;38310;52.796;6.942;2023-09-18T09:03:03;20.00;99.90
52381;DHT22;38310;52.796;6.942;2023-09-18T09:05:30;20.10;99.90
52381;DHT22;38310;52.796;6.942;2023-09-18T09:07:56;20.10;99.90
52381;DHT22;38310;52.796;6.942;2023-09-18T09:10:22;20.20;99.90
52381;DHT22;38310;52.796;6.942;2023-09-18T09:15:27;20.30;99.90
52381;DHT22;38310;52.796;6.942;2023-09-18T09:18:07;20.30;99.90
52381;DHT22;38310;52.796;6.942;2023-09-18T09:20:35;20.30;99.90
52381;DHT22;38310;52.796;6.942;2023-09-18T09:23:05;20.30;99.90
52381;DHT22;38310;52.796;6.942;2023-09-18T09:25:35;20.40;99.90
52381;DHT22;38310;52.796;6.942;2023-09-18T09:28:03;20.50;99.90
52381;DHT22;38310;52.796;6.942;2023-09-18T09:30:32;20.50;99.90
52381;DHT22;38310;52.796;6.942;2023-09-18T09:32:59;20.50;99.90
52381;DHT22;38310;52.796;6.942;2023-09-18T09:35:34;20.60;99.90
52381;DHT22;38310;52.796;6.942;2023-09-18T09:38:08;20.60;99.90
52381;DHT22;38310;52.796;6.942;2023-09-18T09:40:34;20.70;99.90
52381;DHT22;38310;52.796;6.942;2023-09-18T09:43:02;20.70;99.90
52381;DHT22;38310;52.796;6.942;2023-09-18T09:45:31;20.70;99.90
52381;DHT22;38310;52.796;6.942;2023-09-18T09:48:05;20.70;99.90
52381;DHT22;38310;52.796;6.942;2023-09-18T09:50:32;20.80;99.90
52381;DHT22;38310;52.796;6.942;2023-09-18T09:52:58;20.90;99.90
52381;DHT22;38310;52.796;6.942;2023-09-18T09:55:32;21.00;99.90
52381;DHT22;38310;52.796;6.942;2023-09-18T09:58:04;21.10;99.90
52381;DHT22;38310;52.796;6.942;2023-09-18T10:03:12;21.30;99.90
52381;DHT22;38310;52.796;6.942;2023-09-18T10:05:40;21.40;99.90
52381;DHT22;38310;52.796;6.942;2023-09-18T10:08:16;21.40;99.90
52381;DHT22;38310;52.796;6.942;2023-09-18T10:10:53;21.40;99.90
52381;DHT22;38310;52.796;6.942;2023-09-18T10:13:59;21.50;99.90
52381;DHT22;38310;52.796;6.942;2023-09-18T10:16:18;21.50;99.90
52381;DHT22;38310;52.796;6.942;2023-09-18T10:22:06;21.50;99.90
52381;DHT22;38310;52.796;6.942;2023-09-18T10:24:37;21.60;99.90
52381;DHT22;38310;52.796;6.942;2023-09-18T10:27:04;21.70;99.90
52381;DHT22;38310;52.796;6.942;2023-09-18T10:29:35;21.70;99.90
52381;DHT22;38310;52.796;6.942;2023-09-18T10:32:06;21.70;99.90
52381;DHT22;38310;52.796;6.942;2023-09-18T10:34:35;21.70;99.90
52381;DHT22;38310;52.796;6.942;2023-09-18T10:37:03;21.90;99.90
52381;DHT22;38310;52.796;6.942;2023-09-18T10:39:35;22.00;99.90
52381;DHT22;38310;52.796;6.942;2023-09-18T10:42:02;22.10;99.90
52381;DHT22;38310;52.796;6.942;2023-09-18T10:44:30;22.10;99.90
52381;DHT22;38310;52.796;6.942;2023-09-18T10:46:57;22.00;99.90
52381;DHT22;38310;52.796;6.942;2023-09-18T10:49:24;21.90;99.90
52381;DHT22;38310;52.796;6.942;2023-09-18T10:51:54;22.10;99.90
52381;DHT22;38310;52.796;6.942;2023-09-18T10:54:24;22.30;99.90
52381;DHT22;38310;52.796;6.942;2023-09-18T10:56:51;22.10;99.90
52381;DHT22;38310;52.796;6.942;2023-09-18T10:59:17;22.50;99.90
52381;DHT22;38310;52.796;6.942;2023-09-18T11:01:44;22.80;99.90
52381;DHT22;38310;52.796;6.942;2023-09-18T11:04:11;23.00;99.90
52381;DHT22;38310;52.796;6.942;2023-09-18T11:09:29;23.10;99.90
52381;DHT22;38310;52.796;6.942;2023-09-18T11:15:04;23.10;99.90
52381;DHT22;38310;52.796;6.942;2023-09-18T11:17:34;23.30;99.90
52381;DHT22;38310;52.796;6.942;2023-09-18T11:22:35;23.50;99.90
52381;DHT22;38310;52.796;6.942;2023-09-18T11:27:57;23.70;99.90
52381;DHT22;38310;52.796;6.942;2023-09-18T11:30:22;23.30;99.90
52381;DHT22;38310;52.796;6.942;2023-09-18T11:32:52;23.40;99.90
52381;DHT22;38310;52.796;6.942;2023-09-18T11:35:18;23.60;99.90
52381;DHT22;38310;52.796;6.942;2023-09-18T11:37:45;23.30;99.90
52381;DHT22;38310;52.796;6.942;2023-09-18T11:40:31;23.30;99.90
52381;DHT22;38310;52.796;6.942;2023-09-18T11:43:25;23.60;99.90
52381;DHT22;38310;52.796;6.942;2023-09-18T11:45:53;24.10;99.90
52381;DHT22;38310;52.796;6.942;2023-09-18T11:48:20;24.20;99.90
52381;DHT22;38310;52.796;6.942;2023-09-18T11:50:47;23.80;99.90
52381;DHT22;38310;52.796;6.942;2023-09-18T11:53:17;23.60;99.90
52381;DHT22;38310;52.796;6.942;2023-09-18T11:55:44;24.20;99.90
52381;DHT22;38310;52.796;6.942;2023-09-18T11:58:09;24.60;99.90
52381;DHT22;38310;52.796;6.942;2023-09-18T12:00:36;24.70;99.90
52381;DHT22;38310;52.796;6.942;2023-09-18T12:03:19;24.80;99.90
52381;DHT22;38310;52.796;6.942;2023-09-18T12:05:54;25.00;99.90
52381;DHT22;38310;52.796;6.942;2023-09-18T12:08:21;24.90;99.90
52381;DHT22;38310;52.796;6.942;2023-09-18T12:10:50;25.10;99.90
52381;DHT22;38310;52.796;6.942;2023-09-18T12:13:16;25.10;99.90
52381;DHT22;38310;52.796;6.942;2023-09-18T12:15:42;25.10;99.90
52381;DHT22;38310;52.796;6.942;2023-09-18T12:18:09;25.30;99.90
52381;DHT22;38310;52.796;6.942;2023-09-18T12:20:38;25.10;99.90
52381;DHT22;38310;52.796;6.942;2023-09-18T12:23:03;24.70;99.90
52381;DHT22;38310;52.796;6.942;2023-09-18T12:25:29;24.60;99.90
52381;DHT22;38310;52.796;6.942;2023-09-18T12:27:55;24.20;99.90
52381;DHT22;38310;52.796;6.942;2023-09-18T12:30:22;24.00;99.90
52381;DHT22;38310;52.796;6.942;2023-09-18T12:32:52;24.00;99.90
52381;DHT22;38310;52.796;6.942;2023-09-18T12:35:18;24.00;99.90
52381;DHT22;38310;52.796;6.942;2023-09-18T12:37:44;23.80;99.90
52381;DHT22;38310;52.796;6.942;2023-09-18T12:40:42;23.70;99.90
52381;DHT22;38310;52.796;6.942;2023-09-18T12:43:10;23.50;99.90
52381;DHT22;38310;52.796;6.942;2023-09-18T12:45:37;23.40;99.90
52381;DHT22;38310;52.796;6.942;2023-09-18T12:48:03;23.30;99.90
52381;DHT22;38310;52.796;6.942;2023-09-18T12:50:29;23.20;99.90
52381;DHT22;38310;52.796;6.942;2023-09-18T12:53:15;23.20;99.90
52381;DHT22;38310;52.796;6.942;2023-09-18T12:55:46;23.10;99.90
52381;DHT22;38310;52.796;6.942;2023-09-18T12:58:12;23.20;99.90
52381;DHT22;38310;52.796;6.942;2023-09-18T13:00:46;23.10;99.90
52381;DHT22;38310;52.796;6.942;2023-09-18T13:03:13;23.10;99.90
52381;DHT22;38310;52.796;6.942;2023-09-18T13:05:39;23.20;99.90
52381;DHT22;38310;52.796;6.942;2023-09-18T13:08:05;23.50;99.90
52381;DHT22;38310;52.796;6.942;2023-09-18T13:10:44;23.80;99.90
52381;DHT22;38310;52.796;6.942;2023-09-18T13:13:20;24.00;99.90
52381;DHT22;38310;52.796;6.942;2023-09-18T13:15:47;23.80;99.90
52381;DHT22;38310;52.796;6.942;2023-09-18T13:18:15;23.70;99.90
52381;DHT22;38310;52.796;6.942;2023-09-18T13:20:41;23.60;99.90
52381;DHT22;38310;52.796;6.942;2023-09-18T13:23:08;23.50;99.90
52381;DHT22;38310;52.796;6.942;2023-09-18T13:25:37;23.10;99.90
52381;DHT22;38310;52.796;6.942;2023-09-18T13:28:06;23.10;99.90
52381;DHT22;38310;52.796;6.942;2023-09-18T13:30:33;23.10;99.90
52381;DHT22;38310;52.796;6.942;2023-09-18T13:33:06;23.50;99.90
52381;DHT22;38310;52.796;6.942;2023-09-18T13:35:34;23.20;99.90
52381;DHT22;38310;52.796;6.942;2023-09-18T13:38:01;23.10;99.90
52381;DHT22;38310;52.796;6.942;2023-09-18T13:40:30;23.10;99.90
52381;DHT22;38310;52.796;6.942;2023-09-18T13:42:55;23.20;99.90
52381;DHT22;38310;52.796;6.942;2023-09-18T13:45:21;23.10;99.90
52381;DHT22;38310;52.796;6.942;2023-09-18T13:47:47;23.20;99.90
52381;DHT22;38310;52.796;6.942;2023-09-18T13:50:15;23.30;99.90
52381;DHT22;38310;52.796;6.942;2023-09-18T13:52:41;23.50;99.90
52381;DHT22;38310;52.796;6.942;2023-09-18T13:55:07;23.80;99.90
52381;DHT22;38310;52.796;6.942;2023-09-18T13:57:37;24.00;99.90
52381;DHT22;38310;52.796;6.942;2023-09-18T14:00:04;24.30;99.90
52381;DHT22;38310;52.796;6.942;2023-09-18T14:02:32;24.30;99.90
52381;DHT22;38310;52.796;6.942;2023-09-18T14:04:58;24.60;99.90
52381;DHT22;38310;52.796;6.942;2023-09-18T14:07:24;24.90;99.90
52381;DHT22;38310;52.796;6.942;2023-09-18T14:09:50;25.10;99.90
52381;DHT22;38310;52.796;6.942;2023-09-18T14:12:16;25.30;99.90
52381;DHT22;38310;52.796;6.942;2023-09-18T14:14:42;25.10;99.90
52381;DHT22;38310;52.796;6.942;2023-09-18T14:17:10;25.70;99.90
52381;DHT22;38310;52.796;6.942;2023-09-18T14:19:36;25.50;99.90
52381;DHT22;38310;52.796;6.942;2023-09-18T14:22:04;24.80;99.90
52381;DHT22;38310;52.796;6.942;2023-09-18T14:24:31;25.10;99.90
52381;DHT22;38310;52.796;6.942;2023-09-18T14:27:03;25.10;99.90
52381;DHT22;38310;52.796;6.942;2023-09-18T14:29:29;24.70;99.90
52381;DHT22;38310;52.796;6.942;2023-09-18T14:31:59;24.40;99.90
52381;DHT22;38310;52.796;6.942;2023-09-18T14:34:25;24.30;99.90
52381;DHT22;38310;52.796;6.942;2023-09-18T14:36:51;24.10;99.90
52381;DHT22;38310;52.796;6.942;2023-09-18T14:39:17;24.20;99.90
52381;DHT22;38310;52.796;6.942;2023-09-18T14:41:43;24.00;99.90
52381;DHT22;38310;52.796;6.942;2023-09-18T14:44:09;23.80;99.90
52381;DHT22;38310;52.796;6.942;2023-09-18T14:46:37;23.70;99.90
52381;DHT22;38310;52.796;6.942;2023-09-18T14:49:03;23.70;99.90
52381;DHT22;38310;52.796;6.942;2023-09-18T14:51:30;23.70;99.90
52381;DHT22;38310;52.796;6.942;2023-09-18T14:53:59;23.70;99.90
52381;DHT22;38310;52.796;6.942;2023-09-18T14:56:25;23.60;99.90
52381;DHT22;38310;52.796;6.942;2023-09-18T14:58:51;23.60;99.90
52381;DHT22;38310;52.796;6.942;2023-09-18T15:01:20;23.40;99.90
52381;DHT22;38310;52.796;6.942;2023-09-18T15:03:46;23.40;99.90
52381;DHT22;38310;52.796;6.942;2023-09-18T15:06:12;23.30;99.90
52381;DHT22;38310;52.796;6.942;2023-09-18T15:08:38;23.20;99.90
52381;DHT22;38310;52.796;6.942;2023-09-18T15:11:04;23.20;99.90
52381;DHT22;38310;52.796;6.942;2023-09-18T15:13:30;23.20;99.90
52381;DHT22;38310;52.796;6.942;2023-09-18T15:15:57;23.20;99.90
52381;DHT22;38310;52.796;6.942;2023-09-18T15:18:22;23.20;99.90
52381;DHT22;38310;52.796;6.942;2023-09-18T15:20:48;23.20;99.90
52381;DHT22;38310;52.796;6.942;2023-09-18T15:23:23;23.10;99.90
52381;DHT22;38310;52.796;6.942;2023-09-18T15:25:49;23.00;99.90
52381;DHT22;38310;52.796;6.942;2023-09-18T15:28:16;23.10;99.90
52381;DHT22;38310;52.796;6.942;2023-09-18T15:30:45;23.10;99.90
52381;DHT22;38310;52.796;6.942;2023-09-18T15:33:11;23.00;99.90
52381;DHT22;38310;52.796;6.942;2023-09-18T15:35:37;22.90;99.90
52381;DHT22;38310;52.796;6.942;2023-09-18T15:38:03;22.90;99.90
52381;DHT22;38310;52.796;6.942;2023-09-18T15:40:29;22.90;99.90
52381;DHT22;38310;52.796;6.942;2023-09-18T15:42:55;22.90;99.90
52381;DHT22;38310;52.796;6.942;2023-09-18T15:45:20;22.90;99.90
52381;DHT22;38310;52.796;6.942;2023-09-18T15:47:46;22.80;99.90
52381;DHT22;38310;52.796;6.942;2023-09-18T15:50:12;22.80;99.90
52381;DHT22;38310;52.796;6.942;2023-09-18T15:52:39;22.80;99.90